Montreal/Pierre Elliott Trudeau International Airport

Airport
ICAO code: 
CYUL
IATA Code: 
YUL
Summary
ICAO Region: 
NAM
Territory: 
Location: 
Dorval, Quebec,
Serving: 
Montreal
Elevation: 
118 ft
Coordinates: 
Aerial View: 
45° 28' 5.791" N, 73° 44' 30.612" W
Airport LOS: 
Parallel Runway Operation
Metar
Observation
CYUL 261900Z 20003KT 190V260 30SM FEW020 M18/M25 A3044 RMK CF1 CF TR SLP314
Station
Montreal / Pierre Elliot Trudeau International Airport, Que
Date/Time
2022-01-26 19:00:00
Wind direction
200°
Wind speed
03 kts
Lowest cloud amount
few clouds
Temperature
-18°C
Dew point
-25°C
Humidity
54%
Weather condition
n/a

Description

Montréal-Pierre Elliott Trudeau International Airport, formerly known as Montréal-Dorval International Airport, is located in the city of Dorval, on the Island of Montreal, 20 km from Montreal's downtown core. It is the international airport serving Greater Montreal, along with the regions of northern Vermont and New York.

Climatology

Humid Continental climate (Köppen climate classification Dfb) - The humid continental climate is marked by variable weather patterns and a large seasonal temperature variance. Summers are often warm and humid with frequent thunderstorms and winters can be very cold with frequent snowfall and persistent snow cover.

Runways

Designator Length Width Surface Rops
10/28 2134 61 ASP Yes/Yes
06R/24L 2926 61 ASP Yes/Yes
06L/24R 3353 61 ASP Yes/Yes

SKYbrary Partners:

Safety knowledge contributed by: